Time;durP1;ratioP1;P1;durP2;ratioP2;P2;SDS_P1;SDS_P2;PMS_P1;PMS_P2;Temp;Humidity;BMP_temperature;BMP_pressure;BME280_temperature;BME280_humidity;BME280_pressure;Samples;Min_cycle;Max_cycle;Signal;HPM_P1;HPM_P2
2022/05/18 00:02:24;;;;;;;0.60;0.60;;;;;;;12.76;57.09;102224.50;5029916;28;20219;-51
2022/05/18 00:04:50;;;;;;;2.58;0.70;;;;;;;12.70;57.34;102235.41;5029072;28;20230;-52
2022/05/18 00:07:15;;;;;;;0.75;0.63;;;;;;;12.73;57.12;102228.16;5028520;28;20195;-51
2022/05/18 00:09:41;;;;;;;1.75;0.73;;;;;;;12.70;57.24;102219.28;5029530;28;20168;-50
2022/05/18 00:12:07;;;;;;;1.98;0.80;;;;;;;12.77;56.95;102226.28;5029839;28;20615;-51
2022/05/18 00:14:34;;;;;;;1.27;0.73;;;;;;;12.76;56.87;102222.69;5029183;28;20194;-51
2022/05/18 00:17:03;;;;;;;2.50;0.85;;;;;;;12.71;57.16;102227.31;5029538;28;20199;-51
2022/05/18 00:19:32;;;;;;;1.73;0.80;;;;;;;12.74;57.21;102218.28;5029502;28;20196;-50
2022/05/18 00:21:58;;;;;;;1.08;0.60;;;;;;;12.75;56.96;102212.88;5029545;28;20204;-50
2022/05/18 00:24:24;;;;;;;1.27;0.60;;;;;;;12.81;56.85;102211.81;5029276;28;20182;-50
2022/05/18 00:26:49;;;;;;;1.73;0.65;;;;;;;12.77;57.06;102212.84;5028619;28;20168;-49
2022/05/18 00:29:15;;;;;;;2.75;0.65;;;;;;;12.76;57.14;102219.13;5028112;28;20196;-52
2022/05/18 00:31:41;;;;;;;2.00;0.90;;;;;;;12.74;57.09;102224.53;5029797;28;20199;-51
2022/05/18 00:34:07;;;;;;;2.90;0.77;;;;;;;12.73;57.37;102230.84;5028759;28;20559;-47
2022/05/18 00:36:33;;;;;;;1.42;0.73;;;;;;;12.81;57.42;102224.38;5029806;28;20674;-51
2022/05/18 00:38:58;;;;;;;2.55;0.95;;;;;;;12.74;57.65;102218.28;5029759;28;20173;-52
2022/05/18 00:41:24;;;;;;;1.00;0.65;;;;;;;12.71;57.61;102211.19;5029193;28;20199;-48
2022/05/18 00:43:51;;;;;;;1.48;0.70;;;;;;;12.73;57.98;102214.72;5029314;28;20180;-51
2022/05/18 00:46:17;;;;;;;0.57;0.47;;;;;;;12.75;57.98;102217.38;5029590;28;20182;-50
2022/05/18 00:48:43;;;;;;;0.60;0.60;;;;;;;12.65;58.07;102211.31;5030340;28;20188;-49
2022/05/18 00:51:24;;;;;;;1.75;0.60;;;;;;;12.72;58.00;102218.31;5032220;28;20979;-50
2022/05/18 00:53:59;;;;;;;2.97;0.80;;;;;;;12.69;58.36;102214.84;5032987;28;20180;-50
2022/05/18 00:56:33;;;;;;;2.38;0.82;;;;;;;12.61;58.46;102209.63;5032176;28;20198;-52
2022/05/18 00:59:08;;;;;;;1.88;0.90;;;;;;;12.59;58.76;102216.84;5033405;28;20213;-50
2022/05/18 01:01:34;;;;;;;1.42;0.60;;;;;;;12.60;58.93;102224.00;5031782;28;20249;-51
2022/05/18 01:04:03;;;;;;;3.20;0.82;;;;;;;12.64;58.78;102219.41;5032767;28;20582;-48
2022/05/18 01:06:39;;;;;;;0.95;0.60;;;;;;;12.58;59.15;102220.47;5032912;28;20172;-49
2022/05/18 01:09:16;;;;;;;1.77;0.52;;;;;;;12.63;59.04;102223.03;5033045;28;20195;-49
2022/05/18 01:11:41;;;;;;;0.68;0.68;;;;;;;12.49;59.54;102215.31;5033065;28;20207;-48
2022/05/18 01:14:13;;;;;;;2.55;0.70;;;;;;;12.47;59.45;102227.91;5032556;28;20180;-49
2022/05/18 01:16:39;;;;;;;2.60;0.80;;;;;;;12.44;59.82;102228.88;5033222;28;20227;-50
2022/05/18 01:19:12;;;;;;;2.08;0.60;;;;;;;12.45;59.91;102221.69;5033038;28;20207;-50
2022/05/18 01:21:44;;;;;;;2.38;0.70;;;;;;;12.41;59.82;102225.38;5033240;28;20683;-49
2022/05/18 01:24:33;;;;;;;5.13;0.95;;;;;;;12.52;59.56;102218.81;5032301;28;20253;-50
2022/05/18 01:27:01;;;;;;;1.90;0.70;;;;;;;12.40;59.82;102226.28;5032863;28;20661;-50
2022/05/18 01:29:29;;;;;;;1.77;0.70;;;;;;;12.30;60.34;102218.44;5032533;28;20242;-50
2022/05/18 01:32:03;;;;;;;0.98;0.90;;;;;;;12.26;60.05;102215.84;5032502;28;20188;-52
2022/05/18 01:34:33;;;;;;;2.67;0.90;;;;;;;12.26;60.48;102216.72;5031796;28;20631;-47
2022/05/18 01:36:58;;;;;;;1.73;0.80;;;;;;;12.14;61.24;102214.34;5032418;28;20246;-48
2022/05/18 01:39:29;;;;;;;4.72;0.70;;;;;;;12.12;61.19;102221.56;5032731;28;20168;-47
2022/05/18 01:42:03;;;;;;;2.13;0.88;;;;;;;12.07;61.25;102218.97;5031329;28;20192;-49
2022/05/18 01:44:29;;;;;;;1.33;0.70;;;;;;;12.04;61.62;102218.13;5032082;28;20539;-48
2022/05/18 01:46:54;;;;;;;2.20;0.70;;;;;;;12.03;61.45;102211.88;5032894;28;20168;-49
2022/05/18 01:49:20;;;;;;;2.47;0.88;;;;;;;12.17;60.96;102208.88;5032350;28;20226;-49
2022/05/18 01:51:51;;;;;;;1.30;0.80;;;;;;;12.16;61.26;102217.88;5032999;28;20184;-49
2022/05/18 01:54:16;;;;;;;2.83;0.88;;;;;;;11.97;62.17;102219.19;5030742;28;20187;-49
2022/05/18 01:56:41;;;;;;;1.60;0.65;;;;;;;12.01;62.17;102218.22;5024189;28;20200;-48
2022/05/18 01:59:07;;;;;;;0.90;0.73;;;;;;;12.10;62.13;102209.94;5020211;28;20719;-49
2022/05/18 02:01:33;;;;;;;3.25;0.90;;;;;;;11.97;62.07;102214.72;5019069;28;20197;-51
2022/05/18 02:03:59;;;;;;;2.08;0.88;;;;;;;11.91;62.55;102204.97;5011989;28;20550;-46
2022/05/18 02:06:24;;;;;;;1.80;0.68;;;;;;;11.97;62.82;102211.16;5012331;28;20211;-47
2022/05/18 02:08:50;;;;;;;1.77;0.80;;;;;;;11.88;62.92;102204.16;5010236;28;20188;-50
2022/05/18 02:11:19;;;;;;;2.25;1.10;;;;;;;11.77;63.60;102199.00;5012292;28;20671;-47
2022/05/18 02:13:45;;;;;;;1.67;0.70;;;;;;;11.79;63.33;102191.78;5011892;28;20577;-47
2022/05/18 02:16:11;;;;;;;5.18;0.90;;;;;;;11.74;63.70;102193.66;5012039;28;20208;-47
2022/05/18 02:18:37;;;;;;;2.28;0.68;;;;;;;11.69;63.74;102192.88;5012066;28;20598;-47
2022/05/18 02:21:05;;;;;;;4.13;0.77;;;;;;;11.66;64.14;102184.91;5012191;28;20283;-47
2022/05/18 02:23:31;;;;;;;1.67;1.00;;;;;;;11.71;63.94;102186.56;5011635;28;20184;-48
2022/05/18 02:25:58;;;;;;;4.88;0.80;;;;;;;11.72;63.79;102184.78;5011274;28;20187;-48
2022/05/18 02:28:24;;;;;;;5.10;1.02;;;;;;;11.72;64.29;102184.78;5015381;28;20206;-49
2022/05/18 02:30:50;;;;;;;2.08;1.10;;;;;;;11.77;64.04;102182.88;5031755;28;20737;-50
2022/05/18 02:33:15;;;;;;;1.98;1.00;;;;;;;11.69;63.95;102190.22;5031275;28;20176;-50
2022/05/18 02:35:41;;;;;;;3.05;0.98;;;;;;;11.65;64.11;102199.25;5031265;28;20207;-48
2022/05/18 02:38:07;;;;;;;2.60;0.90;;;;;;;11.66;64.23;102195.66;5030879;28;20662;-49
2022/05/18 02:40:33;;;;;;;1.75;0.93;;;;;;;11.66;64.32;102190.28;5031584;28;20541;-49
2022/05/18 02:42:58;;;;;;;3.53;1.10;;;;;;;11.61;64.61;102190.38;5031022;28;20172;-50
2022/05/18 02:45:24;;;;;;;3.05;1.02;;;;;;;11.53;64.55;102182.47;5031470;28;20215;-48
2022/05/18 02:47:50;;;;;;;1.95;0.82;;;;;;;11.62;64.46;102185.91;5030416;28;20234;-49
2022/05/18 02:50:16;;;;;;;1.95;0.85;;;;;;;11.61;64.66;102189.47;5031186;28;20186;-48
2022/05/18 02:52:42;;;;;;;1.00;0.70;;;;;;;11.57;64.63;102185.09;5028849;28;20192;-51
2022/05/18 02:57:53;;;;;;;1.73;0.80;;;;;;;11.53;64.72;102205.75;5030951;28;20188;-49
2022/05/18 03:00:18;;;;;;;1.98;0.80;;;;;;;11.49;64.96;102202.22;5031024;28;20188;-49
2022/05/18 03:02:44;;;;;;;1.20;0.75;;;;;;;11.50;65.38;102211.16;5030696;28;20211;-50
2022/05/18 03:05:09;;;;;;;1.52;0.77;;;;;;;11.43;65.15;102205.03;5030274;28;20670;-51
2022/05/18 03:07:35;;;;;;;2.17;0.98;;;;;;;11.48;64.77;102200.47;5030481;28;20192;-50
2022/05/18 03:10:00;;;;;;;2.72;0.90;;;;;;;11.53;64.88;102205.75;5030524;28;20183;-51
2022/05/18 03:12:25;;;;;;;3.10;1.05;;;;;;;11.50;64.96;102213.84;5030436;28;20234;-50
2022/05/18 03:14:51;;;;;;;2.88;0.80;;;;;;;11.52;64.63;102212.03;5030113;28;20172;-47
2022/05/18 03:17:16;;;;;;;0.82;0.70;;;;;;;11.59;64.36;102207.41;5030076;28;20252;-49
2022/05/18 03:19:42;;;;;;;4.82;1.00;;;;;;;11.51;64.24;102219.19;5029064;28;20225;-49
2022/05/18 03:24:51;;;;;;;1.63;0.90;;;;;;;11.54;64.59;102221.84;5029813;28;20168;-49
2022/05/18 03:27:17;;;;;;;1.52;0.80;;;;;;;11.59;64.41;102224.44;5030280;28;20247;-51
2022/05/18 03:29:42;;;;;;;2.40;0.80;;;;;;;11.47;64.13;102228.22;5030401;28;20176;-48
2022/05/18 03:32:08;;;;;;;2.83;0.93;;;;;;;11.44;64.96;102212.19;5030215;28;20207;-49
2022/05/18 03:34:33;;;;;;;1.80;0.70;;;;;;;11.44;64.79;102220.25;5029450;28;20184;-51
2022/05/18 03:36:59;;;;;;;3.53;0.90;;;;;;;11.50;64.14;102211.16;5030299;28;20197;-48
2022/05/18 03:39:25;;;;;;;4.90;0.98;;;;;;;11.55;64.22;102211.97;5029937;28;20611;-52
2022/05/18 03:41:50;;;;;;;1.52;0.70;;;;;;;11.47;64.48;102213.91;5028998;28;20298;-48
2022/05/18 03:44:16;;;;;;;3.80;0.93;;;;;;;11.48;64.27;102208.53;5029543;28;20317;-50
2022/05/18 03:46:41;;;;;;;3.25;0.77;;;;;;;11.44;64.69;102217.56;5028992;28;20254;-51
2022/05/18 03:49:07;;;;;;;1.85;0.85;;;;;;;11.52;64.13;102217.38;5030054;28;20204;-48
2022/05/18 03:51:33;;;;;;;2.40;1.02;;;;;;;11.51;64.35;102224.56;5029806;28;20269;-50
2022/05/18 03:53:58;;;;;;;1.45;0.77;;;;;;;11.58;64.57;102233.38;5029603;28;20220;-50
2022/05/18 03:56:24;;;;;;;4.20;1.00;;;;;;;11.48;64.63;102235.38;5027042;28;20239;-53
2022/05/18 03:58:50;;;;;;;3.67;1.00;;;;;;;11.46;64.73;102226.47;5009362;28;20267;-51
2022/05/18 04:01:16;;;;;;;3.88;1.00;;;;;;;11.49;64.59;102221.03;5030031;28;20774;-54
2022/05/18 04:03:43;;;;;;;2.38;1.13;;;;;;;11.60;64.47;102220.81;5028043;28;20172;-50
2022/05/18 04:06:09;;;;;;;3.38;0.90;;;;;;;11.53;64.61;102227.22;5030253;28;20180;-49
2022/05/18 04:08:35;;;;;;;0.65;0.60;;;;;;;11.54;64.91;102234.34;5029898;28;20202;-50
2022/05/18 04:11:01;;;;;;;3.45;1.10;;;;;;;11.58;65.00;102224.44;5029906;28;20618;-49
2022/05/18 04:13:27;;;;;;;2.85;0.93;;;;;;;11.57;65.49;102222.66;5029486;28;20172;-52
2022/05/18 04:15:55;;;;;;;2.20;1.10;;;;;;;11.59;65.14;102223.53;5029726;28;20250;-51
2022/05/18 04:18:22;;;;;;;2.72;1.05;;;;;;;11.49;65.49;102220.16;5029811;28;20175;-49
2022/05/18 04:20:49;;;;;;;4.40;0.85;;;;;;;11.53;65.26;102228.09;5028067;28;20218;-51
2022/05/18 04:23:15;;;;;;;4.07;1.27;;;;;;;11.51;65.19;102216.50;5029082;28;20237;-53
2022/05/18 04:25:41;;;;;;;2.08;0.90;;;;;;;11.54;65.17;102220.94;5032692;28;20215;-53
2022/05/18 04:28:07;;;;;;;1.75;0.80;;;;;;;11.58;65.13;102219.06;5030875;28;20180;-51
2022/05/18 04:30:34;;;;;;;1.60;1.02;;;;;;;11.61;64.98;102222.59;5013908;28;20551;-52
2022/05/18 04:32:59;;;;;;;3.45;1.08;;;;;;;11.71;64.95;102226.84;5013808;28;20208;-51
2022/05/18 04:35:26;;;;;;;2.95;1.00;;;;;;;11.63;65.05;102220.78;5014102;28;20208;-48
2022/05/18 04:37:52;;;;;;;1.60;0.90;;;;;;;11.71;65.33;102229.53;5013589;28;20180;-50
2022/05/18 04:40:18;;;;;;;1.58;1.10;;;;;;;11.71;65.05;102220.59;5013498;28;20181;-49
2022/05/18 04:42:44;;;;;;;2.85;1.08;;;;;;;11.78;65.30;102211.50;5013548;28;20208;-50
2022/05/18 04:45:14;;;;;;;1.40;0.98;;;;;;;11.90;65.08;102205.91;5013091;28;20172;-52
2022/05/18 04:47:39;;;;;;;2.03;0.82;;;;;;;11.93;64.97;102207.63;5013400;28;20233;-53
2022/05/18 04:50:07;;;;;;;3.08;1.05;;;;;;;11.97;64.70;102219.19;5013888;28;20247;-49
2022/05/18 04:52:32;;;;;;;1.85;1.13;;;;;;;12.10;64.66;102229.63;5013453;28;20291;-50
2022/05/18 04:54:58;;;;;;;1.20;1.10;;;;;;;12.12;64.65;102225.13;5013296;28;20720;-52
2022/05/18 04:57:23;;;;;;;3.72;1.00;;;;;;;12.11;64.45;102215.31;5013551;28;20303;-49
2022/05/18 04:59:49;;;;;;;2.70;1.08;;;;;;;12.10;64.56;102218.88;5013260;28;20172;-51
2022/05/18 05:02:15;;;;;;;3.85;0.90;;;;;;;12.22;64.82;102217.72;5012356;28;20203;-49
2022/05/18 05:04:41;;;;;;;3.92;1.10;;;;;;;12.14;64.43;102227.78;5012757;28;20697;-51
2022/05/18 05:07:06;;;;;;;2.45;1.00;;;;;;;12.12;64.50;102227.81;5013291;28;20187;-50
2022/05/18 05:09:31;;;;;;;3.58;1.52;;;;;;;12.11;64.71;102219.75;5012178;28;20527;-50
2022/05/18 05:11:57;;;;;;;2.20;1.05;;;;;;;12.15;64.97;102221.47;5013167;28;20699;-51
2022/05/18 05:14:23;;;;;;;3.40;1.13;;;;;;;12.30;64.95;102231.88;5012419;28;20246;-47
2022/05/18 05:16:49;;;;;;;2.13;1.20;;;;;;;12.38;64.77;102233.50;5013048;28;20212;-47
2022/05/18 05:19:15;;;;;;;3.40;1.20;;;;;;;12.52;64.77;102239.44;5012880;28;20640;-47
2022/05/18 05:21:44;;;;;;;2.10;1.00;;;;;;;12.56;63.67;102233.94;5012978;28;20208;-46
2022/05/18 05:24:11;;;;;;;4.72;1.23;;;;;;;12.65;63.48;102230.16;5012169;28;20171;-49
2022/05/18 05:26:37;;;;;;;2.90;1.00;;;;;;;12.78;63.84;102237.00;5013163;28;20173;-46
2022/05/18 05:29:03;;;;;;;1.67;1.02;;;;;;;12.86;63.67;102236.81;5012656;28;20177;-47
2022/05/18 05:31:29;;;;;;;3.28;1.20;;;;;;;12.88;62.99;102220.63;5012586;28;20228;-47
2022/05/18 05:33:56;;;;;;;1.52;1.23;;;;;;;12.92;63.49;102219.63;5011001;28;20648;-47
2022/05/18 05:36:21;;;;;;;2.35;1.30;;;;;;;13.06;63.44;102221.97;5012275;28;20205;-47
2022/05/18 05:38:47;;;;;;;4.10;1.23;;;;;;;13.07;63.43;102219.22;5012221;28;20263;-46
2022/05/18 05:41:12;;;;;;;2.15;1.20;;;;;;;13.23;62.65;102211.63;5011431;28;20370;-49
2022/05/18 05:43:39;;;;;;;1.65;1.10;;;;;;;13.43;62.31;102213.81;5010096;28;20180;-48
2022/05/18 05:46:07;;;;;;;1.65;0.88;;;;;;;13.42;62.83;102209.34;5012961;28;20164;-49
2022/05/18 05:48:34;;;;;;;3.00;1.20;;;;;;;13.54;62.71;102214.38;5010889;28;20220;-50
2022/05/18 05:51:00;;;;;;;2.20;1.30;;;;;;;13.69;62.96;102207.69;5012562;28;20232;-50
2022/05/18 05:53:26;;;;;;;5.10;1.30;;;;;;;13.77;63.00;102211.03;5011905;28;20188;-48
2022/05/18 05:55:53;;;;;;;1.85;1.10;;;;;;;13.92;62.42;102220.44;5012201;28;20300;-47
2022/05/18 05:58:20;;;;;;;3.30;1.20;;;;;;;13.96;62.48;102207.78;5012064;28;20192;-49
2022/05/18 06:00:46;;;;;;;1.90;1.35;;;;;;;14.27;61.65;102214.91;5012051;28;20239;-49
2022/05/18 06:03:14;;;;;;;2.15;1.15;;;;;;;14.14;61.27;102209.03;4994450;28;20181;-49
2022/05/18 06:05:40;;;;;;;3.08;1.52;;;;;;;14.34;61.68;102217.38;5011798;28;20648;-48
2022/05/18 06:08:06;;;;;;;4.47;1.30;;;;;;;14.13;61.46;102208.16;5011868;28;20647;-49
2022/05/18 06:10:32;;;;;;;3.63;1.42;;;;;;;14.61;60.97;102204.84;5012536;28;20188;-52
2022/05/18 06:12:58;;;;;;;2.63;1.45;;;;;;;14.36;61.19;102209.22;5011202;28;20181;-51
2022/05/18 06:15:23;;;;;;;5.93;1.40;;;;;;;14.58;61.90;102199.56;5011955;28;20184;-52
2022/05/18 06:17:49;;;;;;;3.33;1.75;;;;;;;14.56;61.61;102211.31;5011740;28;20567;-49
2022/05/18 06:20:14;;;;;;;2.28;1.23;;;;;;;14.67;61.53;102201.06;5010114;28;20193;-50
2022/05/18 06:22:40;;;;;;;3.10;1.80;;;;;;;14.74;61.76;102199.06;5011697;28;20663;-52
2022/05/18 06:25:05;;;;;;;4.60;1.50;;;;;;;14.97;61.51;102190.16;5011234;28;20557;-51
2022/05/18 06:27:31;;;;;;;2.92;1.40;;;;;;;15.02;61.57;102194.47;5011945;28;20212;-51
2022/05/18 06:29:56;;;;;;;5.18;1.60;;;;;;;15.23;61.39;102197.31;5027872;28;20180;-50
2022/05/18 06:32:22;;;;;;;8.13;1.63;;;;;;;15.45;61.37;102186.63;5029450;28;20694;-49
2022/05/18 06:34:48;;;;;;;2.67;1.45;;;;;;;15.68;61.98;102192.97;5022117;28;20215;-51
2022/05/18 06:37:14;;;;;;;3.33;1.30;;;;;;;15.79;60.95;102213.31;5031158;28;20266;-50
2022/05/18 06:39:40;;;;;;;2.63;1.52;;;;;;;15.66;60.81;102206.56;5030098;28;20466;-51
2022/05/18 06:42:06;;;;;;;4.18;1.40;;;;;;;15.76;60.78;102201.72;5029766;28;20208;-49
2022/05/18 06:44:33;;;;;;;3.95;1.88;;;;;;;15.81;61.07;102195.22;5028620;28;20172;-48
2022/05/18 06:47:00;;;;;;;5.50;1.98;;;;;;;16.01;61.14;102205.25;5028745;28;20202;-50
2022/05/18 06:49:27;;;;;;;2.85;1.50;;;;;;;16.06;61.58;102189.72;5029632;28;20180;-50
2022/05/18 06:51:53;;;;;;;3.40;1.58;;;;;;;16.06;61.59;102199.66;5030997;28;20486;-51
2022/05/18 06:54:19;;;;;;;2.47;1.45;;;;;;;15.81;62.42;102197.91;5029008;28;20677;-49
2022/05/18 06:56:44;;;;;;;3.20;1.77;;;;;;;16.28;61.87;102196.97;5030481;28;20200;-51
2022/05/18 06:59:12;;;;;;;3.58;1.90;;;;;;;16.33;61.50;102192.25;5030618;28;20534;-52
2022/05/18 07:01:39;;;;;;;6.03;1.90;;;;;;;16.46;62.16;102198.03;5029595;28;20269;-50
2022/05/18 07:04:05;;;;;;;3.17;2.28;;;;;;;16.43;62.67;102206.28;5030112;28;20267;-48
2022/05/18 07:06:33;;;;;;;2.90;2.10;;;;;;;16.76;61.46;102201.31;5029738;23;20620;-49
2022/05/18 07:08:59;;;;;;;3.35;2.10;;;;;;;17.07;61.87;102186.47;5011007;28;20624;-50
2022/05/18 07:11:25;;;;;;;2.97;2.03;;;;;;;16.69;61.12;102186.28;5010640;28;20240;-48
2022/05/18 07:13:54;;;;;;;4.63;2.00;;;;;;;16.96;61.33;102175.25;5010536;28;20208;-48
2022/05/18 07:16:24;;;;;;;4.65;1.83;;;;;;;17.53;62.15;102176.28;5011069;28;20635;-48
2022/05/18 07:18:51;;;;;;;2.55;2.00;;;;;;;17.38;61.51;102180.59;5011121;28;20199;-47
2022/05/18 07:21:17;;;;;;;3.58;2.20;;;;;;;17.55;61.38;102185.22;5009655;28;20200;-48
2022/05/18 07:23:42;;;;;;;6.05;2.15;;;;;;;17.55;62.18;102185.22;5009972;28;20643;-48
2022/05/18 07:26:08;;;;;;;5.22;2.20;;;;;;;17.41;62.99;102194.00;5011386;28;20173;-47
2022/05/18 07:28:34;;;;;;;6.18;2.55;;;;;;;17.24;64.37;102193.88;5015498;28;20682;-48
2022/05/18 07:30:59;;;;;;;5.45;2.35;;;;;;;17.13;64.75;102190.75;5030709;28;20582;-48
2022/05/18 07:33:26;;;;;;;3.53;2.60;;;;;;;16.82;65.22;102194.78;5029583;28;20184;-49
2022/05/18 07:35:54;;;;;;;4.78;2.47;;;;;;;16.55;65.53;102189.56;5030606;28;20210;-48
2022/05/18 07:38:22;;;;;;;4.13;1.95;;;;;;;16.78;66.66;102193.13;5030110;28;20680;-49
2022/05/18 07:40:48;;;;;;;4.90;2.50;;;;;;;16.71;65.94;102194.34;5029140;28;20175;-49
2022/05/18 07:43:14;;;;;;;4.45;2.40;;;;;;;17.41;66.07;102193.13;5029849;28;20638;-47
2022/05/18 07:45:41;;;;;;;5.88;2.42;;;;;;;17.39;65.40;102195.00;5030250;28;20187;-48
2022/05/18 07:48:07;;;;;;;2.50;2.30;;;;;;;17.40;65.66;102197.63;5030427;28;20183;-48
2022/05/18 07:50:32;;;;;;;3.03;2.15;;;;;;;17.55;65.32;102196.06;5029527;28;20164;-47
2022/05/18 07:52:59;;;;;;;3.00;2.00;;;;;;;17.47;64.85;102204.56;5029094;28;20265;-49
2022/05/18 07:55:26;;;;;;;4.75;2.40;;;;;;;17.43;65.65;102196.63;5029775;28;20237;-48
2022/05/18 07:57:53;;;;;;;3.80;2.60;;;;;;;17.18;65.56;102191.41;5029928;28;20180;-48
2022/05/18 08:00:20;;;;;;;3.08;2.22;;;;;;;17.15;66.46;102192.44;5029349;28;20168;-48
2022/05/18 08:02:45;;;;;;;3.00;2.17;;;;;;;17.14;66.77;102190.66;5025800;28;20192;-52
2022/05/18 08:05:11;;;;;;;3.28;2.25;;;;;;;17.32;66.87;102185.38;5009357;28;20263;-48
2022/05/18 08:07:37;;;;;;;3.50;2.20;;;;;;;17.43;66.32;102178.53;5009960;28;21033;-48
2022/05/18 08:15:32;;;;;;;3.85;2.35;;;;;;;17.30;68.01;102186.34;5029793;28;20252;-50
2022/05/18 08:17:57;;;;;;;3.65;2.95;;;;;;;17.33;67.82;102187.16;5028424;28;20184;-48
2022/05/18 08:20:24;;;;;;;7.90;2.65;;;;;;;17.49;68.02;102189.13;5027787;28;20180;-49
2022/05/18 08:22:49;;;;;;;4.00;2.80;;;;;;;17.21;68.02;102183.19;5027573;28;20754;-47
2022/05/18 08:25:15;;;;;;;3.08;2.75;;;;;;;17.60;68.23;102187.72;5028122;28;20287;-49
2022/05/18 08:27:45;;;;;;;7.55;3.00;;;;;;;18.06;67.28;102172.94;5029629;28;20267;-50
2022/05/18 08:30:14;;;;;;;2.92;2.55;;;;;;;18.80;65.56;102152.09;5029718;28;20180;-49
2022/05/18 08:32:40;;;;;;;2.85;2.65;;;;;;;19.14;63.69;102153.94;5024067;28;20325;-49
2022/05/18 08:35:06;;;;;;;4.85;2.90;;;;;;;19.61;63.40;102150.47;5013817;28;20223;-49
2022/05/18 08:37:39;;;;;;;5.85;3.20;;;;;;;19.23;62.23;102155.28;5010067;28;20231;-48
2022/05/18 08:40:11;;;;;;;3.08;2.78;;;;;;;19.52;63.23;102149.13;5008816;28;20533;-50
2022/05/18 08:42:36;;;;;;;7.88;3.00;;;;;;;19.18;63.15;102155.53;5009851;28;20372;-46
2022/05/18 08:45:03;;;;;;;5.05;2.97;;;;;;;18.75;64.92;102144.16;5009529;28;20298;-48
2022/05/18 08:47:40;;;;;;;6.55;3.10;;;;;;;18.67;65.72;102146.38;5022015;28;20759;-47
2022/05/18 08:50:13;;;;;;;8.75;3.13;;;;;;;18.32;66.68;102158.09;5029741;28;20593;-49
2022/05/18 08:53:20;;;;;;;6.00;2.78;;;;;;;18.69;67.59;102153.53;5029355;28;20199;-48
2022/05/18 08:55:48;;;;;;;5.78;3.20;;;;;;;19.07;66.12;102161.53;5029093;28;20223;-48
2022/05/18 08:58:22;;;;;;;4.43;2.75;;;;;;;19.62;64.60;102163.09;5029647;28;20172;-49
2022/05/18 09:00:55;;;;;;;3.20;2.83;;;;;;;19.99;64.14;102169.25;5029409;28;20175;-49
2022/05/18 09:03:24;;;;;;;6.00;3.40;;;;;;;20.02;63.95;102157.31;5029103;28;20597;-48
2022/05/18 09:06:05;;;;;;;5.38;2.88;;;;;;;20.35;64.50;102154.47;5029116;28;20863;-46
2022/05/18 09:08:37;;;;;;;4.00;2.70;;;;;;;20.52;63.38;102154.38;5029647;28;20633;-48
2022/05/18 09:11:07;;;;;;;3.95;3.10;;;;;;;20.26;62.97;102157.75;5032151;28;20207;-49
2022/05/18 09:13:33;;;;;;;6.03;3.33;;;;;;;20.24;62.39;102155.09;5032618;28;20598;-50
2022/05/18 09:16:02;;;;;;;5.20;3.22;;;;;;;20.87;61.65;102154.13;5033172;28;20200;-51
2022/05/18 09:18:53;;;;;;;10.32;3.60;;;;;;;20.95;62.42;102138.22;5033008;28;20607;-46
2022/05/18 09:22:01;;;;;;;4.03;3.00;;;;;;;21.07;61.46;102132.97;5033067;28;20214;-50
2022/05/18 09:24:41;;;;;;;3.15;2.85;;;;;;;21.54;61.39;102132.75;5010769;28;20207;-51
2022/05/18 09:27:22;;;;;;;7.38;3.72;;;;;;;21.33;60.41;102140.41;5032964;28;20190;-49
2022/05/18 09:30:16;;;;;;;5.53;3.45;;;;;;;21.31;61.17;102122.38;5032484;28;20217;-50
2022/05/18 09:33:06;;;;;;;5.80;3.22;;;;;;;21.39;60.67;102125.50;5032169;28;20566;-47
2022/05/18 09:35:49;;;;;;;5.07;3.15;;;;;;;21.76;60.18;102121.31;5032497;28;20176;-49
2022/05/18 09:38:25;;;;;;;6.60;3.70;;;;;;;21.47;61.13;102127.75;5032461;28;20175;-48
2022/05/18 09:40:51;;;;;;;7.72;3.92;;;;;;;21.28;60.48;102118.00;5032733;28;20195;-46
2022/05/18 09:43:35;;;;;;;6.88;3.75;;;;;;;21.62;61.00;102115.88;5031789;28;20174;-49
2022/05/18 09:46:01;;;;;;;6.00;4.20;;;;;;;21.88;59.92;102110.59;5032687;28;20509;-46
2022/05/18 09:48:49;;;;;;;5.60;3.60;;;;;;;21.12;60.69;102114.47;5032273;28;20179;-48
2022/05/18 09:51:15;;;;;;;7.57;4.43;;;;;;;20.94;61.64;102113.78;5032435;28;20199;-49
2022/05/18 09:53:41;;;;;;;6.72;3.80;;;;;;;21.14;61.43;102117.97;5031451;28;20558;-47
2022/05/18 09:56:21;;;;;;;4.30;3.40;;;;;;;21.58;61.34;102114.31;5031779;28;20243;-48
2022/05/18 09:58:48;;;;;;;5.63;3.60;;;;;;;21.63;60.98;102112.19;5032132;28;20190;-48
2022/05/18 10:09:36;;;;;;;6.35;3.45;;;;;;;21.93;60.32;102103.84;5031687;28;20179;-46
2022/05/18 10:12:11;;;;;;;6.40;3.80;;;;;;;21.89;60.53;102107.75;5032085;28;20202;-47
2022/05/18 10:14:38;;;;;;;6.20;3.97;;;;;;;22.07;60.10;102107.53;5031009;28;20171;-46
2022/05/18 10:17:07;;;;;;;4.28;3.50;;;;;;;21.73;61.37;102086.03;5032242;28;20235;-47
2022/05/18 10:19:46;;;;;;;5.00;4.10;;;;;;;21.79;59.93;102084.78;5031484;28;20646;-46
2022/05/18 10:22:19;;;;;;;5.03;3.67;;;;;;;21.93;60.54;102092.94;5030887;28;20192;-47
2022/05/18 10:24:52;;;;;;;7.57;3.00;;;;;;;22.21;59.73;102078.31;5030892;28;20238;-46
2022/05/18 10:27:23;;;;;;;6.30;4.00;;;;;;;22.15;59.51;102081.47;5030459;28;20186;-47
2022/05/18 10:30:08;;;;;;;5.57;3.83;;;;;;;22.29;59.03;102069.63;5031846;28;20234;-47
2022/05/18 10:32:36;;;;;;;6.68;3.67;;;;;;;22.41;59.13;102067.91;5031743;28;20208;-48
2022/05/18 10:35:02;;;;;;;4.05;3.63;;;;;;;22.46;59.79;102076.69;5031106;28;20179;-47
2022/05/18 10:37:37;;;;;;;4.82;3.90;;;;;;;22.48;60.04;102080.19;5030889;28;20656;-50
2022/05/18 10:40:12;;;;;;;6.38;3.85;;;;;;;21.95;60.05;102088.25;5030263;28;20182;-47
2022/05/18 10:42:48;;;;;;;7.22;3.35;;;;;;;22.57;59.60;102073.22;5031149;28;20195;-50
2022/05/18 10:45:40;;;;;;;7.95;3.65;;;;;;;22.85;58.06;102069.44;5030851;28;20809;-48
2022/05/18 10:48:27;;;;;;;4.38;3.25;;;;;;;22.76;58.19;102080.97;5028597;28;20253;-47
2022/05/18 10:51:06;;;;;;;4.85;3.58;;;;;;;22.83;59.06;102072.25;5030448;28;20214;-49
2022/05/18 10:53:46;;;;;;;11.98;4.57;;;;;;;22.58;58.54;102072.22;5030758;28;20580;-48
2022/05/18 10:56:25;;;;;;;4.97;3.55;;;;;;;22.49;59.43;102065.53;5030721;28;20564;-47
2022/05/18 10:59:16;;;;;;;5.95;3.50;;;;;;;22.75;59.04;102060.97;5031307;28;20253;-47
2022/05/18 11:01:48;;;;;;;7.53;4.05;;;;;;;22.80;58.72;102058.78;5029673;28;20278;-46
2022/05/18 11:04:22;;;;;;;4.88;3.42;;;;;;;22.91;58.86;102058.03;5030319;28;20195;-47
2022/05/18 11:06:48;;;;;;;4.63;3.55;;;;;;;22.99;58.69;102052.91;5030739;28;20251;-47
2022/05/18 11:09:28;;;;;;;5.55;3.58;;;;;;;23.35;57.97;102050.38;5030704;28;20266;-48
2022/05/18 11:12:15;;;;;;;3.70;3.25;;;;;;;23.23;57.66;102055.78;5030762;28;20604;-47
2022/05/18 11:15:08;;;;;;;6.13;3.60;;;;;;;22.94;58.42;102046.03;5030156;28;20175;-48
2022/05/18 11:17:46;;;;;;;5.43;3.40;;;;;;;23.09;57.92;102046.81;5022617;28;20630;-51
2022/05/18 11:20:38;;;;;;;7.93;3.25;;;;;;;22.98;59.07;102053.91;5030446;28;20187;-47
2022/05/18 11:23:04;;;;;;;6.45;3.42;;;;;;;23.16;58.28;102059.94;5030276;28;20178;-48
2022/05/18 11:25:50;;;;;;;3.88;2.72;;;;;;;23.48;57.89;102053.09;5030647;28;20179;-46
2022/05/18 11:28:27;;;;;;;5.82;3.55;;;;;;;23.39;57.85;102047.31;5030208;28;20669;-47
2022/05/18 11:31:14;;;;;;;4.35;3.38;;;;;;;23.36;57.62;102041.22;5030356;28;20205;-47
2022/05/18 11:33:53;;;;;;;4.20;3.33;;;;;;;23.20;57.78;102038.72;5027855;28;20207;-47
2022/05/18 11:36:52;;;;;;;5.72;3.22;;;;;;;23.34;58.59;102040.44;5030340;28;20681;-48
2022/05/18 11:39:26;;;;;;;6.90;3.15;;;;;;;23.89;58.03;102038.25;5030122;28;20298;-48
2022/05/18 11:42:29;;;;;;;5.75;2.92;;;;;;;23.82;56.77;102027.75;5029899;28;20202;-47
2022/05/18 11:45:02;;;;;;;4.57;3.05;;;;;;;24.22;57.42;102035.66;5029501;28;20180;-47
2022/05/18 11:47:54;;;;;;;4.13;3.53;;;;;;;23.78;56.87;102031.69;5030132;28;20200;-47
2022/05/18 11:50:42;;;;;;;5.88;3.42;;;;;;;23.41;58.36;102028.94;5006592;28;20614;-47
2022/05/18 11:53:34;;;;;;;6.68;3.20;;;;;;;23.40;57.88;102029.06;5029682;28;20646;-47
2022/05/18 11:56:25;;;;;;;19.42;3.75;;;;;;;23.44;58.35;102017.78;5029945;28;20227;-46